Terminal Aerodrome Forecast
Issued by NWS Sterling, VA

Current Version | Previous Version | Graphics & Text | Print | Product List | Glossary On
Versions: 1 2 3 4 5 6 7 8 9 10 11 12 13 14 15 16 17 18 19 20 21 22 23 24 25 26 27 28 29 30 31
116
FTUS41 KLWX 262330
TAFIAD
TAF
KIAD 262330Z 2700/2806 10008KT 3SM -DZ OVC008
     FM270500 14006KT 2SM -DZ OVC008
     FM270800 15006KT 1SM -DZ BR OVC003
     FM271200 19007KT P6SM BKN003
     FM271300 20008KT P6SM BKN008 OVC025
     FM271600 22008KT P6SM BKN050
     FM280000 17004KT P6SM BKN050=

USA.gov is the U.S. government's official web portal to all federal, state and local government web resources and services.